createdAt,value
2019-02-28T00:01:34.004Z,99.90
2019-02-28T00:04:03.654Z,99.90
2019-02-28T00:06:33.738Z,99.90
2019-02-28T00:09:05.888Z,99.90
2019-02-28T00:11:39.545Z,99.90
2019-02-28T00:14:07.829Z,99.90
2019-02-28T00:16:37.857Z,99.90
2019-02-28T00:19:07.394Z,99.90
2019-02-28T00:21:37.395Z,99.90
2019-02-28T00:24:07.895Z,99.90
2019-02-28T00:26:36.492Z,99.90
2019-02-28T00:29:09.495Z,99.90
2019-02-28T00:31:39.686Z,99.90
2019-02-28T00:34:09.073Z,99.90
2019-02-28T00:36:39.037Z,99.90
2019-02-28T00:39:08.839Z,99.90
2019-02-28T00:41:43.123Z,99.90
2019-02-28T00:44:08.719Z,99.90
2019-02-28T00:46:43.843Z,99.90
2019-02-28T00:49:10.738Z,99.90
2019-02-28T00:51:40.284Z,99.90
2019-02-28T00:54:10.243Z,99.90
2019-02-28T00:56:39.268Z,99.90
2019-02-28T00:59:08.733Z,99.90
2019-02-28T01:01:37.430Z,99.90
2019-02-28T01:04:07.738Z,99.90
2019-02-28T01:06:36.869Z,99.90
2019-02-28T01:09:07.707Z,99.90
2019-02-28T01:11:37.691Z,99.90
2019-02-28T01:14:07.843Z,99.90
2019-02-28T01:16:38.451Z,99.90
2019-02-28T01:19:09.095Z,99.90
2019-02-28T01:21:38.705Z,99.90
2019-02-28T01:24:07.467Z,99.90
2019-02-28T01:26:35.969Z,99.90
2019-02-28T01:29:04.517Z,99.90
2019-02-28T01:31:32.994Z,99.90
2019-02-28T01:34:01.502Z,99.90
2019-02-28T01:36:29.976Z,99.90
2019-02-28T01:38:58.822Z,99.90
2019-02-28T01:41:27.430Z,99.90
2019-02-28T01:43:55.936Z,99.90
2019-02-28T01:46:24.522Z,99.90
2019-02-28T01:48:54.541Z,99.90
2019-02-28T01:51:23.216Z,99.90
2019-02-28T01:53:53.601Z,99.90
2019-02-28T01:56:21.919Z,99.90
2019-02-28T01:58:51.096Z,99.90
2019-02-28T02:01:19.731Z,99.90
2019-02-28T02:04:07.640Z,99.90
2019-02-28T02:06:36.198Z,99.90
2019-02-28T02:09:08.077Z,99.90
2019-02-28T02:11:36.245Z,99.90
2019-02-28T02:14:07.420Z,99.90
2019-02-28T02:16:35.087Z,99.90
2019-02-28T02:19:03.834Z,99.90
2019-02-28T02:21:35.035Z,99.90
2019-02-28T02:24:02.525Z,99.90
2019-02-28T02:26:31.182Z,99.90
2019-02-28T02:29:01.218Z,99.90
2019-02-28T02:31:29.847Z,99.90
2019-02-28T02:33:58.377Z,99.90
2019-02-28T02:36:26.909Z,99.90
2019-02-28T02:38:55.434Z,99.90
2019-02-28T02:41:23.942Z,99.90
2019-02-28T02:43:54.851Z,99.90
2019-02-28T02:46:22.602Z,99.90
2019-02-28T02:48:51.174Z,99.90
2019-02-28T02:51:19.718Z,99.90
2019-02-28T02:53:48.208Z,99.90
2019-02-28T02:56:16.957Z,99.90
2019-02-28T02:58:45.487Z,99.90
2019-02-28T03:01:13.980Z,99.90
2019-02-28T03:03:44.204Z,99.90
2019-02-28T03:06:14.355Z,99.90
2019-02-28T03:08:43.089Z,99.90
2019-02-28T03:11:11.579Z,99.90
2019-02-28T03:13:43.741Z,99.90
2019-02-28T03:16:10.238Z,99.90
2019-02-28T03:18:38.807Z,99.90
2019-02-28T03:21:07.420Z,99.90
2019-02-28T03:23:40.087Z,99.90
2019-02-28T03:26:07.261Z,99.90
2019-02-28T03:28:35.895Z,99.90
2019-02-28T03:31:11.678Z,99.90
2019-02-28T03:33:34.747Z,99.90
2019-02-28T03:36:03.324Z,99.90
2019-02-28T03:38:31.874Z,99.90
2019-02-28T03:41:00.390Z,99.90
2019-02-28T03:43:28.846Z,99.90
2019-02-28T03:45:57.342Z,99.90
2019-02-28T03:48:25.883Z,99.90
2019-02-28T03:50:55.511Z,99.90
2019-02-28T03:53:24.738Z,99.90
2019-02-28T03:55:53.255Z,99.90
2019-02-28T03:58:21.896Z,99.90
2019-02-28T04:00:50.441Z,99.90
2019-02-28T04:03:19.085Z,99.90
2019-02-28T04:05:47.638Z,99.90
2019-02-28T04:08:17.560Z,99.90
2019-02-28T04:10:46.113Z,99.90
2019-02-28T04:13:19.233Z,99.90
2019-02-28T04:16:02.335Z,99.90
2019-02-28T04:18:16.066Z,99.90
2019-02-28T04:20:44.641Z,99.90
2019-02-28T04:23:13.189Z,99.90
2019-02-28T04:25:41.746Z,99.90
2019-02-28T04:28:16.866Z,99.90
2019-02-28T04:30:43.829Z,99.90
2019-02-28T04:33:11.681Z,99.90
2019-02-28T04:35:40.317Z,99.90
2019-02-28T04:38:08.868Z,99.90
2019-02-28T04:40:37.383Z,99.90
2019-02-28T04:43:07.296Z,99.90
2019-02-28T04:45:36.215Z,99.90
2019-02-28T04:48:05.798Z,99.90
2019-02-28T04:50:34.350Z,99.90
2019-02-28T04:53:02.891Z,99.90
2019-02-28T04:55:34.241Z,99.90
2019-02-28T04:58:01.674Z,99.90
2019-02-28T05:00:30.818Z,99.90
2019-02-28T05:02:59.643Z,99.90
2019-02-28T05:05:29.684Z,99.90
2019-02-28T05:07:58.279Z,99.90
2019-02-28T05:10:27.003Z,99.90
2019-02-28T05:12:55.569Z,99.90
2019-02-28T05:15:24.062Z,99.90
2019-02-28T05:17:53.169Z,99.90
2019-02-28T05:20:22.805Z,99.90
2019-02-28T05:22:51.273Z,99.90
2019-02-28T05:25:19.775Z,99.90
2019-02-28T05:27:48.312Z,99.90
2019-02-28T05:30:19.379Z,99.90
2019-02-28T05:32:47.721Z,99.90
2019-02-28T05:35:16.186Z,99.90
2019-02-28T05:37:48.299Z,99.90
2019-02-28T05:40:16.019Z,99.90
2019-02-28T05:42:44.694Z,99.90
2019-02-28T05:45:16.445Z,99.90
2019-02-28T05:47:47.216Z,99.90
2019-02-28T05:50:17.291Z,99.90
2019-02-28T05:52:47.678Z,99.90
2019-02-28T05:55:25.606Z,99.90
2019-02-28T05:57:58.097Z,99.90
2019-02-28T06:00:29.408Z,99.90
2019-02-28T06:02:59.052Z,99.90
2019-02-28T06:05:27.545Z,99.90
2019-02-28T06:07:56.029Z,99.90
2019-02-28T06:10:25.302Z,99.90
2019-02-28T06:12:53.843Z,99.90
2019-02-28T06:15:22.409Z,99.90
2019-02-28T06:17:54.625Z,99.90
2019-02-28T06:20:21.170Z,99.90
2019-02-28T06:22:49.646Z,99.90
2019-02-28T06:25:23.868Z,99.90
2019-02-28T06:27:50.402Z,99.90
2019-02-28T06:30:18.748Z,99.90
2019-02-28T06:32:47.219Z,99.90
2019-02-28T06:35:17.744Z,99.90
2019-02-28T06:37:46.417Z,99.90
2019-02-28T06:40:15.932Z,99.90
2019-02-28T06:42:47.770Z,99.90
2019-02-28T06:45:18.539Z,99.90
2019-02-28T06:47:49.490Z,99.90
2019-02-28T06:50:18.925Z,99.90
2019-02-28T06:52:47.551Z,99.90
2019-02-28T06:55:28.438Z,99.90
2019-02-28T06:57:58.911Z,99.90
2019-02-28T07:00:27.225Z,99.90
2019-02-28T07:02:55.740Z,99.90
2019-02-28T07:05:26.298Z,99.90
2019-02-28T07:07:55.091Z,99.90
2019-02-28T07:10:23.582Z,99.90
2019-02-28T07:12:52.193Z,99.90
2019-02-28T07:15:24.789Z,99.90
2019-02-28T07:17:53.484Z,99.90
2019-02-28T07:20:22.010Z,99.90
2019-02-28T07:22:54.643Z,99.90
2019-02-28T07:25:20.753Z,99.90
2019-02-28T07:27:49.344Z,99.90
2019-02-28T07:30:19.450Z,99.90
2019-02-28T07:32:48.446Z,99.90
2019-02-28T07:35:17.065Z,99.90
2019-02-28T07:37:45.741Z,99.90
2019-02-28T07:40:16.177Z,99.90
2019-02-28T07:42:45.900Z,99.90
2019-02-28T07:45:15.618Z,99.90
2019-02-28T07:47:44.337Z,99.90
2019-02-28T07:50:16.640Z,99.90
2019-02-28T07:52:46.486Z,99.90
2019-02-28T07:55:21.598Z,99.90
2019-02-28T07:57:53.220Z,99.90
2019-02-28T08:00:25.050Z,99.90
2019-02-28T08:02:53.541Z,99.90
2019-02-28T08:05:22.162Z,99.90
2019-02-28T08:07:53.759Z,99.90
2019-02-28T08:10:27.287Z,99.90
2019-02-28T08:12:55.880Z,99.90
2019-02-28T08:15:25.615Z,99.90
2019-02-28T08:17:55.739Z,99.90
2019-02-28T08:20:26.046Z,99.90
2019-02-28T08:22:56.894Z,99.90
2019-02-28T08:25:26.399Z,99.90
2019-02-28T08:27:59.583Z,99.90
2019-02-28T08:30:33.845Z,99.90
2019-02-28T08:33:04.283Z,99.90
2019-02-28T08:35:34.871Z,99.90
2019-02-28T08:38:03.250Z,99.90
2019-02-28T08:40:36.286Z,99.90
2019-02-28T08:43:04.762Z,99.90
2019-02-28T08:45:34.639Z,99.90
2019-02-28T08:48:03.296Z,99.90
2019-02-28T08:50:34.702Z,99.90
2019-02-28T08:53:05.691Z,99.90
2019-02-28T08:55:38.400Z,99.90
2019-02-28T08:58:24.519Z,99.90
2019-02-28T09:00:53.116Z,99.90
2019-02-28T09:03:24.288Z,99.90
2019-02-28T09:05:53.329Z,99.90
2019-02-28T09:08:28.884Z,99.90
2019-02-28T09:10:59.665Z,99.90
2019-02-28T09:13:34.222Z,99.90
2019-02-28T09:16:04.935Z,99.90
2019-02-28T09:18:37.089Z,99.90
2019-02-28T09:21:05.780Z,99.90
2019-02-28T09:23:37.745Z,99.90
2019-02-28T09:26:05.710Z,99.90
2019-02-28T09:28:35.530Z,99.90
2019-02-28T09:31:06.329Z,99.90
2019-02-28T09:33:34.941Z,99.90
2019-02-28T09:36:10.441Z,99.70
2019-02-28T09:38:45.318Z,99.90
2019-02-28T09:41:15.023Z,99.10
2019-02-28T09:43:46.605Z,99.20
2019-02-28T09:46:15.586Z,99.60
2019-02-28T09:48:47.571Z,99.00
2019-02-28T09:51:17.781Z,99.20
2019-02-28T09:54:05.961Z,98.50
2019-02-28T09:56:36.099Z,98.10
2019-02-28T09:59:04.700Z,98.00
2019-02-28T10:01:36.700Z,98.10
2019-02-28T10:04:05.433Z,98.10
2019-02-28T10:07:05.936Z,98.30
2019-02-28T10:09:36.142Z,98.70
2019-02-28T10:12:07.787Z,97.50
2019-02-28T10:14:35.101Z,98.10
2019-02-28T10:17:09.895Z,98.00
2019-02-28T10:19:45.739Z,97.60
2019-02-28T10:22:16.982Z,97.20
2019-02-28T10:24:47.218Z,97.30
2019-02-28T10:27:26.730Z,98.50
2019-02-28T10:29:55.663Z,98.50
2019-02-28T10:32:25.602Z,98.80
2019-02-28T10:34:58.318Z,98.70
2019-02-28T10:37:30.115Z,98.80
2019-02-28T10:40:01.506Z,98.70
2019-02-28T10:42:31.189Z,99.20
2019-02-28T10:45:33.066Z,99.10
2019-02-28T10:48:04.122Z,98.50
2019-02-28T10:50:40.489Z,98.50
2019-02-28T10:53:14.597Z,98.40
2019-02-28T10:55:45.748Z,98.00
2019-02-28T10:58:16.216Z,98.20
2019-02-28T11:01:10.589Z,98.50
2019-02-28T11:03:49.976Z,98.90
2019-02-28T11:06:20.751Z,98.10
2019-02-28T11:08:58.915Z,98.20
2019-02-28T11:11:34.380Z,98.20
2019-02-28T11:14:05.644Z,98.40
2019-02-28T11:17:13.555Z,98.50
2019-02-28T11:19:41.168Z,99.70
2019-02-28T11:22:11.903Z,99.20
2019-02-28T11:24:41.890Z,98.80
2019-02-28T11:27:33.686Z,98.70
2019-02-28T11:30:04.124Z,98.00
2019-02-28T11:32:56.183Z,98.00
2019-02-28T11:35:25.630Z,96.90
2019-02-28T11:37:55.815Z,97.10
2019-02-28T11:40:27.880Z,97.00
2019-02-28T11:42:59.365Z,96.50
2019-02-28T11:45:38.386Z,96.30
2019-02-28T11:48:20.258Z,95.20
2019-02-28T11:50:49.221Z,94.40
2019-02-28T11:53:19.176Z,95.10
2019-02-28T11:55:53.218Z,94.80
2019-02-28T11:58:20.251Z,93.00
2019-02-28T12:00:51.273Z,92.00
2019-02-28T12:03:23.137Z,92.20
2019-02-28T12:05:54.322Z,92.30
2019-02-28T12:08:24.616Z,91.50
2019-02-28T12:10:58.347Z,91.00
2019-02-28T12:13:28.723Z,91.10
2019-02-28T12:15:59.840Z,91.60
2019-02-28T12:18:32.248Z,90.90
2019-02-28T12:21:02.060Z,90.50
2019-02-28T12:23:35.060Z,90.40
2019-02-28T12:26:07.453Z,90.60
2019-02-28T12:28:39.107Z,90.40
2019-02-28T12:31:23.195Z,90.00
2019-02-28T12:33:40.104Z,90.50
2019-02-28T12:36:14.364Z,89.70
2019-02-28T12:38:43.929Z,88.80
2019-02-28T12:41:12.699Z,89.30
2019-02-28T12:43:45.604Z,89.40
2019-02-28T12:46:21.168Z,89.10
2019-02-28T12:48:53.724Z,88.40
2019-02-28T12:51:53.395Z,88.20
2019-02-28T12:54:26.015Z,88.70
2019-02-28T12:56:57.424Z,89.80
2019-02-28T12:59:28.503Z,87.90
2019-02-28T13:01:59.167Z,87.00
2019-02-28T13:04:32.597Z,87.10
2019-02-28T13:06:59.849Z,86.90
2019-02-28T13:09:31.205Z,88.10
2019-02-28T13:11:59.786Z,87.30
2019-02-28T13:14:28.431Z,87.50
2019-02-28T13:16:58.933Z,87.30
2019-02-28T13:19:30.414Z,87.10
2019-02-28T13:21:59.358Z,86.90
2019-02-28T13:24:30.705Z,86.80
2019-02-28T13:27:05.530Z,86.90
2019-02-28T13:29:33.900Z,87.00
2019-02-28T13:32:07.491Z,87.00
2019-02-28T13:34:37.666Z,87.70
2019-02-28T13:37:08.255Z,85.70
2019-02-28T13:39:37.231Z,85.70
2019-02-28T13:42:08.739Z,85.20
2019-02-28T13:44:37.728Z,85.60
2019-02-28T13:47:25.909Z,85.70
2019-02-28T13:49:58.336Z,85.50
2019-02-28T13:52:29.708Z,84.40
2019-02-28T13:54:58.340Z,85.10
2019-02-28T13:57:31.392Z,87.00
2019-02-28T14:00:07.980Z,86.00
2019-02-28T14:02:33.991Z,85.30
2019-02-28T14:05:07.115Z,85.30
2019-02-28T14:07:37.709Z,84.80
2019-02-28T14:10:12.075Z,85.00
2019-02-28T14:12:46.806Z,84.20
2019-02-28T14:15:20.213Z,83.50
2019-02-28T14:17:56.247Z,83.80
2019-02-28T14:20:24.498Z,83.60
2019-02-28T14:22:56.164Z,83.80
2019-02-28T14:25:25.196Z,83.70
2019-02-28T14:27:56.853Z,82.30
2019-02-28T14:30:27.655Z,82.00
2019-02-28T14:32:59.169Z,81.30
2019-02-28T14:35:47.347Z,80.50
2019-02-28T14:38:19.699Z,80.90
2019-02-28T14:40:52.885Z,80.70
2019-02-28T14:43:23.731Z,81.60
2019-02-28T14:45:55.566Z,80.20
2019-02-28T14:48:24.960Z,80.80
2019-02-28T14:50:54.795Z,81.30
2019-02-28T14:53:27.671Z,81.80
2019-02-28T14:55:56.372Z,82.30
2019-02-28T14:58:26.887Z,81.50
2019-02-28T15:00:55.175Z,82.30
2019-02-28T15:03:25.988Z,83.30
2019-02-28T15:05:56.249Z,82.40
2019-02-28T15:08:27.117Z,82.40
2019-02-28T15:10:59.208Z,82.70
2019-02-28T15:13:30.425Z,82.00
2019-02-28T15:16:01.612Z,82.80
2019-02-28T15:18:31.403Z,83.80
2019-02-28T15:20:59.926Z,83.60
2019-02-28T15:23:30.924Z,83.30
2019-02-28T15:26:00.167Z,83.10
2019-02-28T15:28:28.743Z,83.30
2019-02-28T15:30:57.348Z,84.70
2019-02-28T15:33:27.411Z,84.20
2019-02-28T15:35:59.352Z,85.00
2019-02-28T15:38:27.923Z,85.10
2019-02-28T15:40:58.843Z,86.10
2019-02-28T15:43:26.624Z,86.30
2019-02-28T15:45:55.222Z,86.90
2019-02-28T15:48:25.003Z,87.60
2019-02-28T15:50:53.546Z,88.10
2019-02-28T15:53:22.239Z,87.60
2019-02-28T15:55:52.355Z,88.70
2019-02-28T15:58:21.003Z,89.20
2019-02-28T16:00:49.692Z,90.00
2019-02-28T16:03:19.589Z,90.10
2019-02-28T16:05:48.128Z,90.40
2019-02-28T16:08:16.741Z,90.80
2019-02-28T16:10:52.945Z,91.00
2019-02-28T16:13:15.654Z,91.10
2019-02-28T16:15:46.347Z,91.20
2019-02-28T16:18:14.852Z,91.50
2019-02-28T16:20:43.464Z,91.60
2019-02-28T16:23:12.109Z,91.60
2019-02-28T16:25:46.908Z,91.70
2019-02-28T16:28:13.782Z,92.10
2019-02-28T16:30:42.505Z,92.10
2019-02-28T16:33:20.813Z,92.20
2019-02-28T16:35:50.222Z,92.10
2019-02-28T16:38:23.724Z,92.10
2019-02-28T16:40:53.518Z,92.40
2019-02-28T16:43:24.496Z,92.70
2019-02-28T16:45:53.248Z,92.50
2019-02-28T16:48:22.121Z,92.90
2019-02-28T16:50:53.841Z,92.80
2019-02-28T16:53:23.946Z,93.10
2019-02-28T16:55:53.179Z,93.20
2019-02-28T16:58:24.754Z,93.50
2019-02-28T17:00:53.542Z,93.70
2019-02-28T17:03:45.617Z,93.50
2019-02-28T17:06:15.249Z,94.00
2019-02-28T17:08:51.493Z,94.00
2019-02-28T17:11:20.688Z,94.30
2019-02-28T17:13:51.288Z,94.30
2019-02-28T17:16:21.726Z,94.50
2019-02-28T17:18:53.469Z,94.80
2019-02-28T17:21:22.149Z,95.00
2019-02-28T17:23:50.985Z,95.10
2019-02-28T17:26:21.361Z,95.40
2019-02-28T17:28:51.611Z,95.60
2019-02-28T17:31:21.947Z,95.80
2019-02-28T17:33:50.977Z,95.90
2019-02-28T17:36:20.556Z,96.00
2019-02-28T17:38:49.273Z,96.40
2019-02-28T17:41:17.864Z,96.40
2019-02-28T17:44:06.043Z,96.80
2019-02-28T17:46:35.724Z,97.00
2019-02-28T17:49:31.777Z,97.20
2019-02-28T17:52:06.123Z,97.40
2019-02-28T17:54:49.950Z,97.80
2019-02-28T17:57:24.392Z,98.10
2019-02-28T18:00:12.967Z,98.20
2019-02-28T18:03:04.016Z,98.80
2019-02-28T18:05:38.596Z,99.10
2019-02-28T18:08:24.036Z,99.50
2019-02-28T18:11:27.542Z,99.60
2019-02-28T18:14:10.814Z,99.90
2019-02-28T18:16:54.547Z,99.90
2019-02-28T18:19:45.268Z,99.90
2019-02-28T18:22:22.676Z,99.90
2019-02-28T18:25:18.224Z,99.90
2019-02-28T18:28:10.867Z,99.90
2019-02-28T18:30:54.884Z,99.90
2019-02-28T18:33:23.504Z,99.90
2019-02-28T18:35:52.538Z,99.90
2019-02-28T18:38:21.034Z,99.90
2019-02-28T18:40:49.640Z,99.90
2019-02-28T18:43:18.207Z,99.90
2019-02-28T18:45:46.793Z,99.90
2019-02-28T18:48:17.951Z,99.90
2019-02-28T18:50:47.333Z,99.90
2019-02-28T18:53:15.877Z,99.90
2019-02-28T18:55:44.449Z,99.90
2019-02-28T18:58:13.090Z,99.90
2019-02-28T19:00:42.512Z,99.90
2019-02-28T19:03:11.162Z,99.90
2019-02-28T19:05:39.722Z,99.90
2019-02-28T19:08:08.325Z,99.90
2019-02-28T19:10:36.900Z,99.90
2019-02-28T19:13:05.530Z,99.90
2019-02-28T19:15:34.100Z,99.90
2019-02-28T19:18:02.691Z,99.90
2019-02-28T19:20:31.153Z,99.90
2019-02-28T19:22:59.636Z,99.90
2019-02-28T19:25:28.198Z,99.90
2019-02-28T19:27:56.729Z,99.90
2019-02-28T19:30:25.231Z,99.90
2019-02-28T19:32:53.783Z,99.90
2019-02-28T19:35:22.270Z,99.90
2019-02-28T19:37:50.774Z,99.90
2019-02-28T19:40:19.382Z,99.90
2019-02-28T19:42:47.931Z,99.90
2019-02-28T19:45:26.787Z,99.90
2019-02-28T19:47:55.261Z,99.90
2019-02-28T19:50:23.878Z,99.90
2019-02-28T19:52:54.084Z,99.90
2019-02-28T19:55:22.885Z,99.90
2019-02-28T19:57:51.472Z,99.90
2019-02-28T20:00:20.696Z,99.90
2019-02-28T20:02:49.411Z,99.90
2019-02-28T20:05:18.454Z,99.90
2019-02-28T20:07:47.047Z,99.90
2019-02-28T20:10:17.166Z,99.90
2019-02-28T20:12:45.811Z,99.90
2019-02-28T20:15:16.697Z,99.90
2019-02-28T20:17:45.271Z,99.90
2019-02-28T20:20:24.518Z,99.90
2019-02-28T20:22:53.155Z,99.90
2019-02-28T20:25:21.777Z,99.90
2019-02-28T20:27:50.461Z,99.90
2019-02-28T20:30:21.278Z,99.90
2019-02-28T20:32:49.903Z,99.90
2019-02-28T20:35:26.124Z,99.90
2019-02-28T20:37:48.864Z,99.90
2019-02-28T20:40:26.086Z,99.90
2019-02-28T20:42:55.004Z,99.90
2019-02-28T20:45:23.567Z,99.90
2019-02-28T20:47:52.174Z,99.90
2019-02-28T20:50:26.599Z,99.90
2019-02-28T20:52:55.243Z,99.90
2019-02-28T20:55:23.860Z,99.90
2019-02-28T20:57:52.652Z,99.90
2019-02-28T21:00:22.933Z,99.90
2019-02-28T21:02:51.699Z,99.90
2019-02-28T21:05:20.301Z,99.90
2019-02-28T21:07:49.050Z,99.90
2019-02-28T21:10:17.701Z,99.90
2019-02-28T21:12:46.345Z,99.90
2019-02-28T21:15:15.019Z,99.90
2019-02-28T21:17:43.495Z,99.90
2019-02-28T21:20:13.690Z,99.90
2019-02-28T21:22:50.668Z,99.90
2019-02-28T21:25:19.073Z,99.90
2019-02-28T21:27:47.676Z,99.90
2019-02-28T21:30:23.886Z,99.90
2019-02-28T21:32:52.355Z,99.90
2019-02-28T21:35:22.579Z,99.90
2019-02-28T21:37:52.506Z,99.90
2019-02-28T21:40:22.929Z,99.90
2019-02-28T21:42:51.614Z,99.90
2019-02-28T21:45:27.197Z,99.90
2019-02-28T21:47:55.783Z,99.90
2019-02-28T21:50:24.309Z,99.90
2019-02-28T21:52:52.933Z,99.90
2019-02-28T21:55:21.587Z,99.90
2019-02-28T21:57:50.162Z,99.90
2019-02-28T22:00:24.218Z,99.90
2019-02-28T22:02:53.656Z,99.90
2019-02-28T22:05:23.150Z,99.90
2019-02-28T22:07:53.703Z,99.90
2019-02-28T22:10:22.533Z,99.90
2019-02-28T22:12:51.759Z,99.90
2019-02-28T22:15:26.470Z,99.90
2019-02-28T22:17:55.672Z,99.90
2019-02-28T22:20:24.660Z,99.90
2019-02-28T22:22:54.092Z,99.90
2019-02-28T22:25:23.911Z,99.90
2019-02-28T22:27:54.723Z,99.90
2019-02-28T22:30:30.305Z,99.90
2019-02-28T22:33:00.652Z,99.90
2019-02-28T22:35:32.760Z,99.90
2019-02-28T22:38:03.820Z,99.90
2019-02-28T22:40:34.960Z,99.90
2019-02-28T22:43:05.221Z,99.90
2019-02-28T22:45:33.785Z,99.90
2019-02-28T22:48:02.357Z,99.90
2019-02-28T22:50:30.830Z,99.90
2019-02-28T22:52:59.343Z,99.90
2019-02-28T22:55:27.820Z,99.90
2019-02-28T22:57:56.523Z,99.90
2019-02-28T23:01:05.813Z,99.90
2019-02-28T23:03:35.470Z,99.90
2019-02-28T23:06:04.627Z,99.90
2019-02-28T23:08:33.134Z,99.90
2019-02-28T23:11:01.674Z,99.90
2019-02-28T23:13:30.136Z,99.90
2019-02-28T23:15:58.710Z,99.90
2019-02-28T23:18:27.173Z,99.90
2019-02-28T23:20:55.685Z,99.90
2019-02-28T23:23:24.193Z,99.90
2019-02-28T23:25:52.774Z,99.90
2019-02-28T23:28:26.758Z,99.90
2019-02-28T23:31:07.201Z,99.90
2019-02-28T23:33:35.659Z,99.90
2019-02-28T23:36:04.216Z,99.90
2019-02-28T23:38:32.840Z,99.90
2019-02-28T23:41:01.391Z,99.90
2019-02-28T23:43:29.954Z,99.90
2019-02-28T23:45:58.492Z,99.90
2019-02-28T23:48:27.072Z,99.90
2019-02-28T23:50:55.605Z,99.90
2019-02-28T23:53:24.120Z,99.90
2019-02-28T23:55:52.569Z,99.90
2019-02-28T23:58:21.068Z,99.90
